sensor_id;sensor_type;location;lat;lon;timestamp;P1;durP1;ratioP1;P2;durP2;ratioP2
70322;SDS011;57735;56.264;43.898;2022-07-29T00:02:16;5.85;;;2.55;;
70322;SDS011;57735;56.264;43.898;2022-07-29T00:04:46;3.88;;;2.25;;
70322;SDS011;57735;56.264;43.898;2022-07-29T00:07:17;6.60;;;2.50;;
70322;SDS011;57735;56.264;43.898;2022-07-29T00:09:56;6.95;;;2.42;;
70322;SDS011;57735;56.264;43.898;2022-07-29T00:12:26;4.68;;;2.38;;
70322;SDS011;57735;56.264;43.898;2022-07-29T00:14:57;8.02;;;2.42;;
70322;SDS011;57735;56.264;43.898;2022-07-29T00:17:28;4.43;;;2.30;;
70322;SDS011;57735;56.264;43.898;2022-07-29T00:20:01;6.97;;;2.53;;
70322;SDS011;57735;56.264;43.898;2022-07-29T00:22:36;3.50;;;2.45;;
70322;SDS011;57735;56.264;43.898;2022-07-29T00:25:08;5.93;;;2.53;;
70322;SDS011;57735;56.264;43.898;2022-07-29T00:27:46;7.07;;;2.58;;
70322;SDS011;57735;56.264;43.898;2022-07-29T00:30:17;2.67;;;2.28;;
70322;SDS011;57735;56.264;43.898;2022-07-29T00:32:47;3.85;;;2.40;;
70322;SDS011;57735;56.264;43.898;2022-07-29T00:35:20;3.17;;;2.40;;
70322;SDS011;57735;56.264;43.898;2022-07-29T00:38:13;5.97;;;2.50;;
70322;SDS011;57735;56.264;43.898;2022-07-29T00:40:46;11.63;;;2.80;;
70322;SDS011;57735;56.264;43.898;2022-07-29T00:43:17;4.40;;;2.47;;
70322;SDS011;57735;56.264;43.898;2022-07-29T00:45:48;7.93;;;2.53;;
70322;SDS011;57735;56.264;43.898;2022-07-29T00:48:22;3.55;;;2.20;;
70322;SDS011;57735;56.264;43.898;2022-07-29T00:50:58;4.00;;;2.58;;
70322;SDS011;57735;56.264;43.898;2022-07-29T00:53:31;3.40;;;2.50;;
70322;SDS011;57735;56.264;43.898;2022-07-29T00:56:02;6.32;;;3.00;;
70322;SDS011;57735;56.264;43.898;2022-07-29T00:58:36;6.68;;;2.70;;
70322;SDS011;57735;56.264;43.898;2022-07-29T01:01:07;5.25;;;2.95;;
70322;SDS011;57735;56.264;43.898;2022-07-29T01:03:38;6.63;;;2.63;;
70322;SDS011;57735;56.264;43.898;2022-07-29T01:06:09;9.02;;;2.88;;
70322;SDS011;57735;56.264;43.898;2022-07-29T01:08:40;4.90;;;2.25;;
70322;SDS011;57735;56.264;43.898;2022-07-29T01:11:11;7.60;;;3.15;;
70322;SDS011;57735;56.264;43.898;2022-07-29T01:13:42;5.70;;;2.75;;
70322;SDS011;57735;56.264;43.898;2022-07-29T01:16:32;8.85;;;2.80;;
70322;SDS011;57735;56.264;43.898;2022-07-29T01:25:26;14.43;;;3.75;;
70322;SDS011;57735;56.264;43.898;2022-07-29T01:30:52;5.53;;;2.30;;
70322;SDS011;57735;56.264;43.898;2022-07-29T01:36:18;4.47;;;2.95;;
70322;SDS011;57735;56.264;43.898;2022-07-29T01:39:23;4.97;;;2.30;;
70322;SDS011;57735;56.264;43.898;2022-07-29T01:47:44;5.22;;;2.75;;
70322;SDS011;57735;56.264;43.898;2022-07-29T01:50:31;7.55;;;2.72;;
70322;SDS011;57735;56.264;43.898;2022-07-29T01:53:09;6.85;;;3.10;;
70322;SDS011;57735;56.264;43.898;2022-07-29T01:55:45;5.07;;;3.00;;
70322;SDS011;57735;56.264;43.898;2022-07-29T01:58:18;3.28;;;2.45;;
70322;SDS011;57735;56.264;43.898;2022-07-29T02:00:54;4.97;;;3.05;;
70322;SDS011;57735;56.264;43.898;2022-07-29T02:03:30;3.05;;;2.60;;
70322;SDS011;57735;56.264;43.898;2022-07-29T02:06:04;3.78;;;2.53;;
70322;SDS011;57735;56.264;43.898;2022-07-29T02:08:37;9.77;;;2.92;;
70322;SDS011;57735;56.264;43.898;2022-07-29T02:11:09;5.55;;;2.90;;
70322;SDS011;57735;56.264;43.898;2022-07-29T02:13:43;9.73;;;3.08;;
70322;SDS011;57735;56.264;43.898;2022-07-29T02:16:16;6.13;;;3.08;;
70322;SDS011;57735;56.264;43.898;2022-07-29T02:18:52;7.78;;;3.20;;
70322;SDS011;57735;56.264;43.898;2022-07-29T02:21:25;5.22;;;3.22;;
70322;SDS011;57735;56.264;43.898;2022-07-29T02:23:59;8.75;;;2.80;;
70322;SDS011;57735;56.264;43.898;2022-07-29T02:26:32;6.90;;;2.70;;
70322;SDS011;57735;56.264;43.898;2022-07-29T02:29:04;6.20;;;2.88;;
70322;SDS011;57735;56.264;43.898;2022-07-29T02:31:36;5.45;;;2.90;;
70322;SDS011;57735;56.264;43.898;2022-07-29T02:34:12;7.10;;;2.75;;
70322;SDS011;57735;56.264;43.898;2022-07-29T02:36:46;9.33;;;3.53;;
70322;SDS011;57735;56.264;43.898;2022-07-29T02:39:18;4.00;;;2.85;;
70322;SDS011;57735;56.264;43.898;2022-07-29T02:41:51;6.60;;;2.90;;
70322;SDS011;57735;56.264;43.898;2022-07-29T02:44:28;5.82;;;3.08;;
70322;SDS011;57735;56.264;43.898;2022-07-29T02:47:16;6.22;;;2.65;;
70322;SDS011;57735;56.264;43.898;2022-07-29T02:50:20;6.80;;;3.00;;
70322;SDS011;57735;56.264;43.898;2022-07-29T02:55:43;4.10;;;2.67;;
70322;SDS011;57735;56.264;43.898;2022-07-29T03:00:49;7.95;;;2.90;;
70322;SDS011;57735;56.264;43.898;2022-07-29T03:03:24;6.22;;;2.60;;
70322;SDS011;57735;56.264;43.898;2022-07-29T03:06:01;7.40;;;3.15;;
70322;SDS011;57735;56.264;43.898;2022-07-29T03:08:35;3.40;;;2.40;;
70322;SDS011;57735;56.264;43.898;2022-07-29T03:11:07;10.20;;;3.40;;
70322;SDS011;57735;56.264;43.898;2022-07-29T03:13:41;4.30;;;2.78;;
70322;SDS011;57735;56.264;43.898;2022-07-29T03:16:12;8.52;;;3.47;;
70322;SDS011;57735;56.264;43.898;2022-07-29T03:18:44;6.10;;;3.13;;
70322;SDS011;57735;56.264;43.898;2022-07-29T03:21:18;6.93;;;3.30;;
70322;SDS011;57735;56.264;43.898;2022-07-29T03:23:49;4.32;;;3.22;;
70322;SDS011;57735;56.264;43.898;2022-07-29T03:26:20;6.13;;;3.38;;
70322;SDS011;57735;56.264;43.898;2022-07-29T03:28:51;5.93;;;3.10;;
70322;SDS011;57735;56.264;43.898;2022-07-29T03:31:31;9.85;;;3.90;;
70322;SDS011;57735;56.264;43.898;2022-07-29T03:34:02;5.70;;;3.53;;
70322;SDS011;57735;56.264;43.898;2022-07-29T03:36:35;6.35;;;3.85;;
70322;SDS011;57735;56.264;43.898;2022-07-29T03:39:06;12.35;;;3.58;;
70322;SDS011;57735;56.264;43.898;2022-07-29T03:41:39;11.48;;;4.07;;
70322;SDS011;57735;56.264;43.898;2022-07-29T03:44:12;8.70;;;4.20;;
70322;SDS011;57735;56.264;43.898;2022-07-29T03:46:48;17.23;;;4.63;;
70322;SDS011;57735;56.264;43.898;2022-07-29T03:49:21;10.27;;;4.40;;
70322;SDS011;57735;56.264;43.898;2022-07-29T03:51:55;15.02;;;4.13;;
70322;SDS011;57735;56.264;43.898;2022-07-29T03:54:26;6.05;;;3.80;;
70322;SDS011;57735;56.264;43.898;2022-07-29T03:57:01;6.47;;;3.75;;
70322;SDS011;57735;56.264;43.898;2022-07-29T03:59:33;10.07;;;4.18;;
70322;SDS011;57735;56.264;43.898;2022-07-29T04:02:05;6.53;;;3.60;;
70322;SDS011;57735;56.264;43.898;2022-07-29T04:04:41;6.28;;;3.88;;
70322;SDS011;57735;56.264;43.898;2022-07-29T04:07:12;11.07;;;4.68;;
70322;SDS011;57735;56.264;43.898;2022-07-29T04:09:46;17.05;;;4.57;;
70322;SDS011;57735;56.264;43.898;2022-07-29T04:12:17;5.60;;;3.90;;
70322;SDS011;57735;56.264;43.898;2022-07-29T04:14:53;9.00;;;3.60;;
70322;SDS011;57735;56.264;43.898;2022-07-29T04:17:24;9.95;;;4.13;;
70322;SDS011;57735;56.264;43.898;2022-07-29T04:19:55;5.90;;;3.97;;
70322;SDS011;57735;56.264;43.898;2022-07-29T04:22:28;5.47;;;3.88;;
70322;SDS011;57735;56.264;43.898;2022-07-29T04:24:59;6.35;;;3.20;;
70322;SDS011;57735;56.264;43.898;2022-07-29T04:27:32;5.80;;;3.63;;
70322;SDS011;57735;56.264;43.898;2022-07-29T04:30:03;6.45;;;3.72;;
70322;SDS011;57735;56.264;43.898;2022-07-29T04:32:36;6.13;;;3.70;;
70322;SDS011;57735;56.264;43.898;2022-07-29T04:35:07;6.97;;;3.80;;
70322;SDS011;57735;56.264;43.898;2022-07-29T04:37:38;7.50;;;4.07;;
70322;SDS011;57735;56.264;43.898;2022-07-29T04:40:09;9.02;;;3.90;;
70322;SDS011;57735;56.264;43.898;2022-07-29T04:42:43;6.55;;;4.35;;
70322;SDS011;57735;56.264;43.898;2022-07-29T04:45:17;6.90;;;4.18;;
70322;SDS011;57735;56.264;43.898;2022-07-29T04:47:50;10.07;;;4.10;;
70322;SDS011;57735;56.264;43.898;2022-07-29T04:50:21;8.98;;;4.10;;
70322;SDS011;57735;56.264;43.898;2022-07-29T04:52:52;6.68;;;3.80;;
70322;SDS011;57735;56.264;43.898;2022-07-29T04:55:23;7.63;;;3.60;;
70322;SDS011;57735;56.264;43.898;2022-07-29T04:57:55;6.78;;;3.70;;
70322;SDS011;57735;56.264;43.898;2022-07-29T05:00:28;5.57;;;3.88;;
70322;SDS011;57735;56.264;43.898;2022-07-29T05:02:58;6.93;;;3.60;;
70322;SDS011;57735;56.264;43.898;2022-07-29T05:05:32;11.38;;;3.05;;
70322;SDS011;57735;56.264;43.898;2022-07-29T05:08:03;11.77;;;3.70;;
70322;SDS011;57735;56.264;43.898;2022-07-29T05:10:37;18.08;;;4.05;;
70322;SDS011;57735;56.264;43.898;2022-07-29T05:13:08;13.40;;;3.75;;
70322;SDS011;57735;56.264;43.898;2022-07-29T05:15:39;93.45;;;7.55;;
70322;SDS011;57735;56.264;43.898;2022-07-29T05:18:10;55.67;;;8.32;;
70322;SDS011;57735;56.264;43.898;2022-07-29T05:20:41;12.73;;;5.07;;
70322;SDS011;57735;56.264;43.898;2022-07-29T05:23:12;18.63;;;5.32;;
70322;SDS011;57735;56.264;43.898;2022-07-29T05:25:42;14.65;;;5.75;;
70322;SDS011;57735;56.264;43.898;2022-07-29T05:28:13;14.85;;;4.93;;
70322;SDS011;57735;56.264;43.898;2022-07-29T05:30:47;21.00;;;7.65;;
70322;SDS011;57735;56.264;43.898;2022-07-29T05:33:19;26.10;;;8.40;;
70322;SDS011;57735;56.264;43.898;2022-07-29T05:35:50;15.88;;;6.63;;
70322;SDS011;57735;56.264;43.898;2022-07-29T05:38:24;16.20;;;7.60;;
70322;SDS011;57735;56.264;43.898;2022-07-29T05:40:56;15.00;;;7.43;;
70322;SDS011;57735;56.264;43.898;2022-07-29T05:43:28;20.35;;;7.30;;
70322;SDS011;57735;56.264;43.898;2022-07-29T05:45:59;24.27;;;8.15;;
70322;SDS011;57735;56.264;43.898;2022-07-29T05:48:33;14.05;;;7.93;;
70322;SDS011;57735;56.264;43.898;2022-07-29T05:51:04;22.35;;;10.38;;
70322;SDS011;57735;56.264;43.898;2022-07-29T05:53:35;18.30;;;9.88;;
70322;SDS011;57735;56.264;43.898;2022-07-29T05:56:06;21.23;;;11.00;;
70322;SDS011;57735;56.264;43.898;2022-07-29T05:58:40;23.10;;;11.10;;
70322;SDS011;57735;56.264;43.898;2022-07-29T06:01:11;32.03;;;13.77;;
70322;SDS011;57735;56.264;43.898;2022-07-29T06:03:41;21.30;;;9.55;;
70322;SDS011;57735;56.264;43.898;2022-07-29T06:06:13;30.42;;;12.98;;
70322;SDS011;57735;56.264;43.898;2022-07-29T06:08:44;40.47;;;15.98;;
70322;SDS011;57735;56.264;43.898;2022-07-29T06:11:17;25.95;;;11.18;;
70322;SDS011;57735;56.264;43.898;2022-07-29T06:13:51;17.38;;;11.18;;
70322;SDS011;57735;56.264;43.898;2022-07-29T06:16:22;20.08;;;11.73;;
70322;SDS011;57735;56.264;43.898;2022-07-29T06:18:53;23.23;;;10.95;;
70322;SDS011;57735;56.264;43.898;2022-07-29T06:21:23;20.08;;;11.20;;
70322;SDS011;57735;56.264;43.898;2022-07-29T06:23:54;20.98;;;10.43;;
70322;SDS011;57735;56.264;43.898;2022-07-29T06:26:25;24.63;;;13.75;;
70322;SDS011;57735;56.264;43.898;2022-07-29T06:28:56;31.65;;;16.27;;
70322;SDS011;57735;56.264;43.898;2022-07-29T06:31:27;24.15;;;15.00;;
70322;SDS011;57735;56.264;43.898;2022-07-29T06:33:58;37.30;;;17.80;;
70322;SDS011;57735;56.264;43.898;2022-07-29T06:36:35;29.55;;;14.27;;
70322;SDS011;57735;56.264;43.898;2022-07-29T06:39:07;41.60;;;17.50;;
70322;SDS011;57735;56.264;43.898;2022-07-29T06:41:39;30.67;;;14.55;;
70322;SDS011;57735;56.264;43.898;2022-07-29T06:44:09;24.60;;;14.45;;
70322;SDS011;57735;56.264;43.898;2022-07-29T06:46:40;26.15;;;16.10;;
70322;SDS011;57735;56.264;43.898;2022-07-29T06:49:11;37.47;;;19.58;;
70322;SDS011;57735;56.264;43.898;2022-07-29T06:51:44;31.30;;;17.35;;
70322;SDS011;57735;56.264;43.898;2022-07-29T06:54:14;20.63;;;12.73;;
70322;SDS011;57735;56.264;43.898;2022-07-29T06:56:46;20.38;;;12.30;;
70322;SDS011;57735;56.264;43.898;2022-07-29T06:59:16;24.33;;;13.27;;
70322;SDS011;57735;56.264;43.898;2022-07-29T07:01:50;21.05;;;12.10;;
70322;SDS011;57735;56.264;43.898;2022-07-29T07:04:23;28.35;;;14.50;;
70322;SDS011;57735;56.264;43.898;2022-07-29T07:06:54;24.58;;;14.68;;
70322;SDS011;57735;56.264;43.898;2022-07-29T07:09:25;23.95;;;13.60;;
70322;SDS011;57735;56.264;43.898;2022-07-29T07:11:56;31.50;;;15.93;;
70322;SDS011;57735;56.264;43.898;2022-07-29T07:14:27;26.70;;;13.80;;
70322;SDS011;57735;56.264;43.898;2022-07-29T07:16:58;25.80;;;14.60;;
70322;SDS011;57735;56.264;43.898;2022-07-29T07:19:30;27.00;;;15.05;;
70322;SDS011;57735;56.264;43.898;2022-07-29T07:22:01;33.42;;;17.88;;
70322;SDS011;57735;56.264;43.898;2022-07-29T07:24:32;32.42;;;16.52;;
70322;SDS011;57735;56.264;43.898;2022-07-29T07:27:03;25.17;;;14.82;;
70322;SDS011;57735;56.264;43.898;2022-07-29T07:29:34;23.50;;;14.27;;
70322;SDS011;57735;56.264;43.898;2022-07-29T07:32:05;26.40;;;14.10;;
70322;SDS011;57735;56.264;43.898;2022-07-29T07:34:36;21.75;;;13.63;;
70322;SDS011;57735;56.264;43.898;2022-07-29T07:37:12;22.65;;;14.15;;
70322;SDS011;57735;56.264;43.898;2022-07-29T07:39:42;24.10;;;14.65;;
70322;SDS011;57735;56.264;43.898;2022-07-29T07:42:13;27.73;;;15.77;;
70322;SDS011;57735;56.264;43.898;2022-07-29T07:44:44;22.80;;;14.38;;
70322;SDS011;57735;56.264;43.898;2022-07-29T07:47:18;33.83;;;18.00;;
70322;SDS011;57735;56.264;43.898;2022-07-29T07:49:54;25.67;;;15.98;;
70322;SDS011;57735;56.264;43.898;2022-07-29T07:52:25;29.65;;;16.65;;
70322;SDS011;57735;56.264;43.898;2022-07-29T07:54:56;24.30;;;14.77;;
70322;SDS011;57735;56.264;43.898;2022-07-29T07:57:26;27.30;;;14.90;;
70322;SDS011;57735;56.264;43.898;2022-07-29T07:59:57;23.05;;;14.10;;
70322;SDS011;57735;56.264;43.898;2022-07-29T08:02:28;28.92;;;17.35;;
70322;SDS011;57735;56.264;43.898;2022-07-29T08:05:07;36.15;;;19.50;;
70322;SDS011;57735;56.264;43.898;2022-07-29T08:10:18;35.45;;;19.48;;
70322;SDS011;57735;56.264;43.898;2022-07-29T08:13:08;27.45;;;15.85;;
70322;SDS011;57735;56.264;43.898;2022-07-29T08:15:42;29.42;;;15.15;;
70322;SDS011;57735;56.264;43.898;2022-07-29T08:18:14;29.05;;;15.50;;
70322;SDS011;57735;56.264;43.898;2022-07-29T08:20:45;21.75;;;11.73;;
70322;SDS011;57735;56.264;43.898;2022-07-29T08:23:16;14.15;;;9.18;;
70322;SDS011;57735;56.264;43.898;2022-07-29T08:25:49;16.23;;;9.38;;
70322;SDS011;57735;56.264;43.898;2022-07-29T08:28:20;16.50;;;11.57;;
70322;SDS011;57735;56.264;43.898;2022-07-29T08:30:51;19.80;;;13.55;;
70322;SDS011;57735;56.264;43.898;2022-07-29T08:33:22;22.10;;;15.10;;
70322;SDS011;57735;56.264;43.898;2022-07-29T08:35:54;19.33;;;12.25;;
70322;SDS011;57735;56.264;43.898;2022-07-29T08:38:24;22.92;;;13.38;;
70322;SDS011;57735;56.264;43.898;2022-07-29T08:40:56;22.65;;;13.30;;
70322;SDS011;57735;56.264;43.898;2022-07-29T08:43:28;24.20;;;14.40;;
70322;SDS011;57735;56.264;43.898;2022-07-29T08:46:02;36.03;;;18.27;;
70322;SDS011;57735;56.264;43.898;2022-07-29T08:48:36;24.38;;;16.50;;
70322;SDS011;57735;56.264;43.898;2022-07-29T08:51:08;27.27;;;17.30;;
70322;SDS011;57735;56.264;43.898;2022-07-29T08:53:48;27.23;;;16.40;;
70322;SDS011;57735;56.264;43.898;2022-07-29T08:56:20;22.63;;;14.70;;
70322;SDS011;57735;56.264;43.898;2022-07-29T08:58:54;22.33;;;15.80;;
70322;SDS011;57735;56.264;43.898;2022-07-29T09:01:29;27.02;;;17.60;;
70322;SDS011;57735;56.264;43.898;2022-07-29T09:04:20;23.15;;;17.42;;
70322;SDS011;57735;56.264;43.898;2022-07-29T09:07:23;26.05;;;18.70;;
70322;SDS011;57735;56.264;43.898;2022-07-29T09:09:53;25.33;;;16.08;;
70322;SDS011;57735;56.264;43.898;2022-07-29T09:12:27;27.88;;;18.17;;
70322;SDS011;57735;56.264;43.898;2022-07-29T09:15:00;18.58;;;12.75;;
70322;SDS011;57735;56.264;43.898;2022-07-29T09:17:41;19.60;;;13.82;;
70322;SDS011;57735;56.264;43.898;2022-07-29T09:20:20;18.77;;;13.93;;
70322;SDS011;57735;56.264;43.898;2022-07-29T09:22:54;21.00;;;13.88;;
70322;SDS011;57735;56.264;43.898;2022-07-29T09:25:35;15.82;;;10.95;;
70322;SDS011;57735;56.264;43.898;2022-07-29T09:28:10;18.95;;;13.18;;
70322;SDS011;57735;56.264;43.898;2022-07-29T09:30:53;11.60;;;8.95;;
70322;SDS011;57735;56.264;43.898;2022-07-29T09:33:32;13.60;;;10.13;;
70322;SDS011;57735;56.264;43.898;2022-07-29T09:36:11;13.52;;;10.32;;
70322;SDS011;57735;56.264;43.898;2022-07-29T09:38:42;15.93;;;10.23;;
70322;SDS011;57735;56.264;43.898;2022-07-29T09:41:13;11.13;;;8.10;;
70322;SDS011;57735;56.264;43.898;2022-07-29T09:43:52;17.15;;;11.43;;
70322;SDS011;57735;56.264;43.898;2022-07-29T09:46:27;12.23;;;10.25;;
70322;SDS011;57735;56.264;43.898;2022-07-29T09:49:11;14.93;;;9.65;;
70322;SDS011;57735;56.264;43.898;2022-07-29T09:51:46;12.18;;;9.10;;
70322;SDS011;57735;56.264;43.898;2022-07-29T09:54:24;10.60;;;8.40;;
70322;SDS011;57735;56.264;43.898;2022-07-29T09:56:56;12.93;;;10.02;;
70322;SDS011;57735;56.264;43.898;2022-07-29T09:59:27;14.50;;;9.90;;
70322;SDS011;57735;56.264;43.898;2022-07-29T10:01:58;11.93;;;9.93;;
70322;SDS011;57735;56.264;43.898;2022-07-29T10:04:39;14.23;;;9.90;;
70322;SDS011;57735;56.264;43.898;2022-07-29T10:07:10;14.20;;;10.85;;
70322;SDS011;57735;56.264;43.898;2022-07-29T10:09:49;17.17;;;13.13;;
70322;SDS011;57735;56.264;43.898;2022-07-29T10:12:26;16.63;;;12.32;;
70322;SDS011;57735;56.264;43.898;2022-07-29T10:14:57;19.05;;;12.20;;
70322;SDS011;57735;56.264;43.898;2022-07-29T10:17:34;16.48;;;12.57;;
70322;SDS011;57735;56.264;43.898;2022-07-29T10:20:05;15.68;;;13.27;;
70322;SDS011;57735;56.264;43.898;2022-07-29T10:22:39;19.60;;;13.90;;
70322;SDS011;57735;56.264;43.898;2022-07-29T10:25:36;22.85;;;13.95;;
70322;SDS011;57735;56.264;43.898;2022-07-29T10:28:07;22.30;;;15.38;;
70322;SDS011;57735;56.264;43.898;2022-07-29T10:30:39;18.17;;;14.38;;
70322;SDS011;57735;56.264;43.898;2022-07-29T10:36:32;22.08;;;15.73;;
70322;SDS011;57735;56.264;43.898;2022-07-29T10:44:53;26.83;;;18.38;;
70322;SDS011;57735;56.264;43.898;2022-07-29T10:47:25;27.00;;;19.67;;
70322;SDS011;57735;56.264;43.898;2022-07-29T10:50:01;27.13;;;17.95;;
70322;SDS011;57735;56.264;43.898;2022-07-29T10:55:33;29.02;;;19.98;;
70322;SDS011;57735;56.264;43.898;2022-07-29T10:58:16;27.17;;;20.77;;
70322;SDS011;57735;56.264;43.898;2022-07-29T11:00:51;32.58;;;21.08;;
70322;SDS011;57735;56.264;43.898;2022-07-29T11:03:42;30.67;;;21.08;;
70322;SDS011;57735;56.264;43.898;2022-07-29T11:06:25;24.13;;;18.00;;
70322;SDS011;57735;56.264;43.898;2022-07-29T11:09:39;25.15;;;17.95;;
70322;SDS011;57735;56.264;43.898;2022-07-29T11:15:22;16.45;;;13.45;;
70322;SDS011;57735;56.264;43.898;2022-07-29T11:20:34;23.85;;;15.60;;
70322;SDS011;57735;56.264;43.898;2022-07-29T11:31:42;18.00;;;14.05;;
70322;SDS011;57735;56.264;43.898;2022-07-29T11:34:22;23.52;;;15.30;;
70322;SDS011;57735;56.264;43.898;2022-07-29T11:47:54;22.55;;;17.05;;
70322;SDS011;57735;56.264;43.898;2022-07-29T11:50:29;26.40;;;18.23;;
70322;SDS011;57735;56.264;43.898;2022-07-29T11:53:12;22.90;;;17.27;;
70322;SDS011;57735;56.264;43.898;2022-07-29T11:55:44;24.88;;;16.65;;
70322;SDS011;57735;56.264;43.898;2022-07-29T11:58:14;27.83;;;19.88;;
70322;SDS011;57735;56.264;43.898;2022-07-29T12:00:53;23.48;;;17.50;;
70322;SDS011;57735;56.264;43.898;2022-07-29T12:03:27;28.02;;;19.58;;
70322;SDS011;57735;56.264;43.898;2022-07-29T12:05:59;28.48;;;18.73;;
70322;SDS011;57735;56.264;43.898;2022-07-29T12:08:38;25.35;;;18.25;;
70322;SDS011;57735;56.264;43.898;2022-07-29T12:11:17;24.83;;;17.20;;
70322;SDS011;57735;56.264;43.898;2022-07-29T12:13:51;23.45;;;16.88;;
70322;SDS011;57735;56.264;43.898;2022-07-29T12:16:22;27.88;;;18.67;;
70322;SDS011;57735;56.264;43.898;2022-07-29T12:19:02;22.25;;;16.33;;
70322;SDS011;57735;56.264;43.898;2022-07-29T12:21:52;25.38;;;18.38;;
70322;SDS011;57735;56.264;43.898;2022-07-29T12:24:42;20.40;;;14.93;;
70322;SDS011;57735;56.264;43.898;2022-07-29T12:27:16;25.20;;;17.85;;
70322;SDS011;57735;56.264;43.898;2022-07-29T12:30:01;26.30;;;18.30;;
70322;SDS011;57735;56.264;43.898;2022-07-29T12:32:39;27.20;;;15.88;;
70322;SDS011;57735;56.264;43.898;2022-07-29T12:35:14;23.48;;;16.77;;
70322;SDS011;57735;56.264;43.898;2022-07-29T12:37:47;29.35;;;15.95;;
70322;SDS011;57735;56.264;43.898;2022-07-29T12:43:06;20.55;;;14.55;;
70322;SDS011;57735;56.264;43.898;2022-07-29T12:45:42;17.20;;;11.60;;
70322;SDS011;57735;56.264;43.898;2022-07-29T12:48:15;19.25;;;14.23;;
70322;SDS011;57735;56.264;43.898;2022-07-29T12:50:54;20.08;;;12.65;;
70322;SDS011;57735;56.264;43.898;2022-07-29T12:53:27;21.60;;;15.07;;
70322;SDS011;57735;56.264;43.898;2022-07-29T12:55:58;19.88;;;13.38;;
70322;SDS011;57735;56.264;43.898;2022-07-29T13:01:13;18.17;;;12.95;;
70322;SDS011;57735;56.264;43.898;2022-07-29T13:03:48;15.05;;;11.25;;
70322;SDS011;57735;56.264;43.898;2022-07-29T13:11:48;23.75;;;18.23;;
70322;SDS011;57735;56.264;43.898;2022-07-29T13:14:36;21.65;;;16.60;;
70322;SDS011;57735;56.264;43.898;2022-07-29T13:17:13;25.25;;;16.95;;
70322;SDS011;57735;56.264;43.898;2022-07-29T13:19:49;22.35;;;16.08;;
70322;SDS011;57735;56.264;43.898;2022-07-29T13:22:23;18.08;;;13.00;;
70322;SDS011;57735;56.264;43.898;2022-07-29T13:25:00;17.35;;;14.90;;
70322;SDS011;57735;56.264;43.898;2022-07-29T13:27:35;21.45;;;15.90;;
70322;SDS011;57735;56.264;43.898;2022-07-29T13:30:08;26.40;;;16.57;;
70322;SDS011;57735;56.264;43.898;2022-07-29T13:32:39;22.70;;;18.42;;
70322;SDS011;57735;56.264;43.898;2022-07-29T13:35:10;20.60;;;15.95;;
70322;SDS011;57735;56.264;43.898;2022-07-29T13:37:41;17.20;;;14.18;;
70322;SDS011;57735;56.264;43.898;2022-07-29T13:40:15;20.55;;;14.43;;
70322;SDS011;57735;56.264;43.898;2022-07-29T13:42:45;22.25;;;17.25;;
70322;SDS011;57735;56.264;43.898;2022-07-29T13:45:16;21.55;;;17.02;;
70322;SDS011;57735;56.264;43.898;2022-07-29T13:47:47;21.40;;;16.52;;
70322;SDS011;57735;56.264;43.898;2022-07-29T13:50:21;26.00;;;17.35;;
70322;SDS011;57735;56.264;43.898;2022-07-29T13:52:54;22.05;;;15.52;;
70322;SDS011;57735;56.264;43.898;2022-07-29T13:55:25;22.77;;;16.55;;
70322;SDS011;57735;56.264;43.898;2022-07-29T13:57:56;22.52;;;16.40;;
70322;SDS011;57735;56.264;43.898;2022-07-29T14:00:27;24.98;;;17.98;;
70322;SDS011;57735;56.264;43.898;2022-07-29T14:02:58;22.17;;;17.60;;
70322;SDS011;57735;56.264;43.898;2022-07-29T14:05:28;19.98;;;15.90;;
70322;SDS011;57735;56.264;43.898;2022-07-29T14:07:59;24.23;;;18.23;;
70322;SDS011;57735;56.264;43.898;2022-07-29T14:10:30;23.23;;;15.52;;
70322;SDS011;57735;56.264;43.898;2022-07-29T14:13:01;21.27;;;15.93;;
70322;SDS011;57735;56.264;43.898;2022-07-29T14:15:32;20.08;;;15.13;;
70322;SDS011;57735;56.264;43.898;2022-07-29T14:18:02;25.08;;;17.38;;
70322;SDS011;57735;56.264;43.898;2022-07-29T14:20:33;20.25;;;16.92;;
70322;SDS011;57735;56.264;43.898;2022-07-29T14:23:04;21.10;;;14.55;;
70322;SDS011;57735;56.264;43.898;2022-07-29T14:25:35;18.98;;;14.55;;
70322;SDS011;57735;56.264;43.898;2022-07-29T14:28:06;24.42;;;16.38;;
70322;SDS011;57735;56.264;43.898;2022-07-29T14:30:39;23.73;;;17.42;;
70322;SDS011;57735;56.264;43.898;2022-07-29T14:33:10;21.80;;;16.98;;
70322;SDS011;57735;56.264;43.898;2022-07-29T14:35:41;22.55;;;16.63;;
70322;SDS011;57735;56.264;43.898;2022-07-29T14:38:12;19.42;;;15.85;;
70322;SDS011;57735;56.264;43.898;2022-07-29T14:40:43;25.65;;;16.10;;
70322;SDS011;57735;56.264;43.898;2022-07-29T14:43:14;21.77;;;15.90;;
70322;SDS011;57735;56.264;43.898;2022-07-29T14:45:47;21.23;;;15.23;;
70322;SDS011;57735;56.264;43.898;2022-07-29T14:48:18;23.45;;;17.52;;
70322;SDS011;57735;56.264;43.898;2022-07-29T14:50:52;24.95;;;16.52;;
70322;SDS011;57735;56.264;43.898;2022-07-29T14:53:23;26.42;;;16.75;;
70322;SDS011;57735;56.264;43.898;2022-07-29T14:55:54;24.42;;;15.63;;
70322;SDS011;57735;56.264;43.898;2022-07-29T14:58:25;26.70;;;15.02;;
70322;SDS011;57735;56.264;43.898;2022-07-29T15:00:55;25.75;;;17.00;;
70322;SDS011;57735;56.264;43.898;2022-07-29T15:03:29;23.27;;;16.33;;
70322;SDS011;57735;56.264;43.898;2022-07-29T15:06:03;28.88;;;18.92;;
70322;SDS011;57735;56.264;43.898;2022-07-29T15:08:34;27.80;;;19.67;;
70322;SDS011;57735;56.264;43.898;2022-07-29T15:11:04;29.77;;;19.88;;
70322;SDS011;57735;56.264;43.898;2022-07-29T15:13:35;26.55;;;19.38;;
70322;SDS011;57735;56.264;43.898;2022-07-29T15:16:06;29.33;;;20.08;;
70322;SDS011;57735;56.264;43.898;2022-07-29T15:18:38;26.25;;;19.83;;
70322;SDS011;57735;56.264;43.898;2022-07-29T15:21:08;31.35;;;21.48;;
70322;SDS011;57735;56.264;43.898;2022-07-29T15:23:39;27.83;;;21.70;;
70322;SDS011;57735;56.264;43.898;2022-07-29T15:26:10;29.48;;;21.75;;
70322;SDS011;57735;56.264;43.898;2022-07-29T15:28:46;34.58;;;22.40;;
70322;SDS011;57735;56.264;43.898;2022-07-29T15:31:17;29.90;;;20.48;;
70322;SDS011;57735;56.264;43.898;2022-07-29T15:33:49;30.80;;;21.75;;
70322;SDS011;57735;56.264;43.898;2022-07-29T15:36:20;33.10;;;21.92;;
70322;SDS011;57735;56.264;43.898;2022-07-29T15:38:54;28.05;;;20.50;;
70322;SDS011;57735;56.264;43.898;2022-07-29T15:41:25;27.70;;;21.88;;
70322;SDS011;57735;56.264;43.898;2022-07-29T15:43:56;31.98;;;22.60;;
70322;SDS011;57735;56.264;43.898;2022-07-29T15:46:26;30.60;;;23.10;;
70322;SDS011;57735;56.264;43.898;2022-07-29T15:49:15;30.55;;;22.95;;
70322;SDS011;57735;56.264;43.898;2022-07-29T15:51:46;32.55;;;22.60;;
70322;SDS011;57735;56.264;43.898;2022-07-29T15:54:17;34.85;;;24.77;;
70322;SDS011;57735;56.264;43.898;2022-07-29T15:56:48;40.85;;;26.48;;
70322;SDS011;57735;56.264;43.898;2022-07-29T15:59:19;39.33;;;27.13;;
70322;SDS011;57735;56.264;43.898;2022-07-29T16:01:50;39.38;;;27.23;;
70322;SDS011;57735;56.264;43.898;2022-07-29T16:04:21;28.20;;;20.63;;
70322;SDS011;57735;56.264;43.898;2022-07-29T16:06:55;21.38;;;16.75;;
70322;SDS011;57735;56.264;43.898;2022-07-29T16:09:26;16.08;;;9.00;;
70322;SDS011;57735;56.264;43.898;2022-07-29T16:11:58;11.68;;;6.03;;